Crown College, Minnesota
Current Conditions -  °F | °C
As of 5:53 AM on Monday 20 Oct 2014 (Local Time) from KFCM Reporting Station
Clear Clear  
Wind Chill: 44°   Ceiling: Unl
Heat Index: 47°   Visibility: 10mi
Dew Point: 42°   Wind: 7mph
Humidity: 83%   Direction: 300°WNW
Pressure: 29.94"   Gusts: NA
Location:  44.9069°N, 93.7466°W
Report Text: KFCM 201053Z 30006KT 10SM CLR 08/06 A2994 RMK AO2 SLP138 T00830056 $
Loading
Personal Weather Stations






























Interactive Weather Map
Tropical Storm Tracking
New forecast layout! Learn more

10-Day Weather Forecast

Advertisements
Track Severe Weather on mobile